Time;durP1;ratioP1;P1;durP2;ratioP2;P2;SDS_P1;SDS_P2;PMS_P1;PMS_P2;Temp;Humidity;BMP_temperature;BMP_pressure;BME280_temperature;BME280_humidity;BME280_pressure;Samples;Min_cycle;Max_cycle;Signal;HPM_P1;HPM_P2
2021/07/03 00:00:00;;;;;;;;;9.75;9.75;;;;;24.37;100.00;101160.00;5079757;27;45463;-70
2021/07/03 00:02:25;;;;;;;;;12.50;10.75;;;;;24.39;100.00;101156.25;5079592;27;45616;-70
2021/07/03 00:04:50;;;;;;;;;11.00;10.25;;;;;24.34;100.00;101149.53;5079190;27;45337;-70
2021/07/03 00:10:37;;;;;;;;;11.00;10.50;;;;;24.31;100.00;101145.25;5079525;28;45414;-70
2021/07/03 00:13:03;;;;;;;;;16.25;14.75;;;;;24.34;100.00;101146.84;5078902;27;45985;-71
2021/07/03 00:15:28;;;;;;;;;12.00;11.00;;;;;24.25;100.00;101137.59;5078947;27;45415;-71
2021/07/03 00:17:56;;;;;;;;;11.25;10.25;;;;;24.31;100.00;101139.06;5079203;27;45386;-73
2021/07/03 00:20:23;;;;;;;;;10.50;10.50;;;;;24.27;100.00;101145.50;5079616;28;45277;-72
2021/07/03 00:22:48;;;;;;;;;13.00;11.25;;;;;24.24;100.00;101143.91;5078817;27;47287;-71
2021/07/03 00:25:14;;;;;;;;;13.00;13.00;;;;;24.10;100.00;101123.44;5078887;27;45225;-72
2021/07/03 00:27:40;;;;;;;;;11.50;10.75;;;;;24.19;100.00;101147.81;5079039;27;45324;-70
2021/07/03 00:30:08;;;;;;;;;10.75;10.75;;;;;24.16;100.00;101145.34;5079096;27;45218;-71
2021/07/03 00:32:34;;;;;;;;;14.75;12.00;;;;;24.18;100.00;101149.63;5078788;27;46433;-69
2021/07/03 00:34:59;;;;;;;;;12.25;12.25;;;;;24.16;100.00;101145.34;5078728;27;45322;-70
2021/07/03 00:40:47;;;;;;;;;12.00;11.00;;;;;24.09;100.00;101148.41;5079159;28;45392;-70
2021/07/03 00:43:13;;;;;;;;;11.75;11.75;;;;;24.06;100.00;101151.28;5078613;27;47599;-70
2021/07/03 00:45:39;;;;;;;;;12.00;12.00;;;;;24.03;100.00;101148.81;5078486;27;45552;-70
2021/07/03 00:48:04;;;;;;;;;12.00;11.50;;;;;23.98;100.00;101142.03;5078792;27;45249;-70
2021/07/03 00:50:30;;;;;;;;;12.00;11.00;;;;;23.97;100.00;101143.84;5078789;27;45490;-71
2021/07/03 00:52:55;;;;;;;;;11.00;10.50;;;;;23.91;100.00;101141.56;5077234;27;47249;-72
2021/07/03 00:55:21;;;;;;;;;12.00;11.00;;;;;23.84;100.00;101134.94;5076952;28;45355;-70
2021/07/03 00:57:47;;;;;;;;;12.75;12.00;;;;;23.88;100.00;101139.09;5078861;27;45326;-71
2021/07/03 01:00:14;;;;;;;;;10.50;10.00;;;;;23.79;100.00;101123.69;5078685;27;45276;-71
2021/07/03 01:02:40;;;;;;;;;14.25;12.25;;;;;23.81;100.00;101135.97;5078408;27;46425;-70
2021/07/03 01:05:06;;;;;;;;;13.25;12.50;;;;;23.80;100.00;101133.41;5078688;27;45386;-70
2021/07/03 01:10:53;;;;;;;;;13.75;13.50;;;;;23.71;100.00;101117.97;5078581;28;45284;-71
2021/07/03 01:13:29;;;;;;;;;12.00;11.50;;;;;23.70;100.00;101127.78;5078012;27;46175;-71
2021/07/03 01:15:54;;;;;;;;;14.75;13.75;;;;;23.64;100.00;101114.00;5078048;27;45237;-71
2021/07/03 01:18:19;;;;;;;;;12.50;12.25;;;;;23.65;100.00;101118.38;5078713;28;45288;-71
2021/07/03 01:20:46;;;;;;;;;16.00;14.00;;;;;;;;5078346;27;45252;-71
2021/07/03 01:23:11;;;;;;;;;12.25;12.00;;;;;23.52;100.00;101102.25;5077897;27;47643;-70
2021/07/03 01:25:37;;;;;;;;;14.50;13.50;;;;;23.57;100.00;101115.34;5077887;27;45399;-70
2021/07/03 01:28:04;;;;;;;;;13.25;11.00;;;;;23.53;100.00;101112.81;5078275;27;45359;-71
2021/07/03 01:30:31;;;;;;;;;13.75;12.50;;;;;23.56;100.00;101113.59;5078184;27;45388;-71
2021/07/03 01:32:57;;;;;;;;;14.25;13.50;;;;;23.54;100.00;101111.03;5077778;27;45499;-70
2021/07/03 01:35:30;;;;;;;;;14.50;13.50;;;;;23.56;100.00;101116.25;5078039;28;45372;-71
2021/07/03 01:41:17;;;;;;;;;13.50;12.50;;;;;23.56;100.00;101113.59;5078060;28;45334;-71
2021/07/03 01:43:43;;;;;;;;;14.75;13.75;;;;;23.51;100.00;101100.53;5076444;28;47202;-71
2021/07/03 01:46:08;;;;;;;;;12.00;12.00;;;;;23.51;100.00;101103.19;5077689;27;45438;-70
2021/07/03 01:48:33;;;;;;;;;14.25;13.00;;;;;23.56;100.00;101102.94;5077888;27;45236;-71
2021/07/03 01:50:59;;;;;;;;;14.75;13.00;;;;;23.54;100.00;101105.69;5077990;27;45375;-71
2021/07/03 01:56:58;;;;;;;;;12.75;12.50;;;;;23.55;100.00;101101.22;5066067;27;45443;-71
2021/07/03 01:59:24;;;;;;;;;13.00;12.00;;;;;23.51;100.00;101090.72;5077785;27;45332;-71
2021/07/03 02:01:53;;;;;;;;;12.00;12.00;;;;;23.53;100.00;101102.13;5077840;27;45308;-71
2021/07/03 02:04:19;;;;;;;;;16.25;13.25;;;;;23.44;100.00;101085.88;5075848;28;47293;-71
2021/07/03 02:06:44;;;;;;;;;14.00;13.50;;;;;23.49;100.00;101091.78;5077107;27;45385;-70
2021/07/03 02:09:10;;;;;;;;;13.75;12.75;;;;;23.44;100.00;101091.22;5077539;27;45258;-71
2021/07/03 02:11:35;;;;;;;;;12.00;12.00;;;;;23.47;100.00;101093.69;5077482;27;45313;-71
2021/07/03 02:14:00;;;;;;;;;13.25;12.00;;;;;23.47;100.00;101091.00;5077279;27;47195;-71
2021/07/03 02:16:26;;;;;;;;;12.00;11.25;;;;;23.39;100.00;101086.16;5077173;27;45347;-70
2021/07/03 02:18:51;;;;;;;;;13.00;12.50;;;;;23.44;100.00;101096.53;5077440;27;45288;-70
2021/07/03 02:21:16;;;;;;;;;11.75;10.50;;;;;23.43;100.00;101097.50;5077525;27;45514;-71
2021/07/03 02:23:42;;;;;;;;;14.25;11.50;;;;;23.41;100.00;101097.59;5076986;27;46678;-69
2021/07/03 02:26:07;;;;;;;;;13.25;12.25;;;;;23.40;100.00;101098.53;5077151;27;45357;-70
2021/07/03 02:28:33;;;;;;;;;12.25;10.00;;;;;23.39;100.00;101099.50;5077346;27;45307;-69
2021/07/03 02:30:59;;;;;;;;;13.25;12.75;;;;;23.37;100.00;101098.75;5077375;27;45459;-70
2021/07/03 02:33:24;;;;;;;;;12.25;11.50;;;;;23.33;100.00;101091.03;5076794;27;46037;-69
2021/07/03 02:35:50;;;;;;;;;13.00;13.00;;;;;23.29;100.00;101094.81;5076994;27;45391;-70
2021/07/03 02:41:36;;;;;;;;;13.00;12.50;;;;;23.27;100.00;101097.56;5077394;28;45613;-71
2021/07/03 02:44:03;;;;;;;;;13.25;13.00;;;;;23.25;100.00;101099.47;5077252;27;45391;-71
2021/07/03 02:46:28;;;;;;;;;13.00;13.00;;;;;23.21;100.00;101092.63;5076868;27;45354;-70
2021/07/03 02:48:54;;;;;;;;;14.00;12.25;;;;;23.13;100.00;101077.13;5076988;27;45324;-71
2021/07/03 02:51:19;;;;;;;;;12.00;11.50;;;;;23.23;100.00;101098.72;5076843;27;45519;-71
2021/07/03 02:57:06;;;;;;;;;12.25;10.50;;;;;23.14;100.00;101084.16;5073172;28;45723;-71
2021/07/03 02:59:32;;;;;;;;;14.00;12.75;;;;;23.18;100.00;101087.50;5077236;27;45423;-70
2021/07/03 03:01:58;;;;;;;;;15.25;14.50;;;;;23.14;100.00;101086.81;5076989;27;45576;-71
2021/07/03 03:04:23;;;;;;;;;13.25;12.75;;;;;23.08;100.00;101086.31;5077046;27;46323;-72
2021/07/03 03:06:49;;;;;;;;;12.00;11.00;;;;;23.08;100.00;101087.19;5076594;27;45416;-70
2021/07/03 03:09:15;;;;;;;;;15.00;12.75;;;;;23.06;100.00;101075.75;5076944;27;45392;-70
2021/07/03 03:11:41;;;;;;;;;15.25;13.50;;;;;23.04;100.00;101076.81;5076706;27;45256;-71
2021/07/03 03:14:06;;;;;;;;;12.25;11.25;;;;;23.07;100.00;101087.28;5076760;27;45974;-72
2021/07/03 03:16:31;;;;;;;;;12.75;12.75;;;;;23.06;100.00;101080.22;5077753;27;45446;-70
2021/07/03 03:18:57;;;;;;;;;11.75;10.75;;;;;23.03;100.00;101080.44;5080495;27;45218;-70
2021/07/03 03:21:23;;;;;;;;;11.00;11.00;;;;;23.03;100.00;101083.09;5078984;27;45695;-71
2021/07/03 03:27:10;;;;;;;;;13.75;13.00;;;;;23.02;100.00;101095.56;5079722;28;45443;-71
2021/07/03 03:29:35;;;;;;;;;14.50;14.50;;;;;23.03;100.00;101088.41;5078868;28;45405;-70
2021/07/03 03:32:00;;;;;;;;;15.25;14.00;;;;;23.02;100.00;101094.69;5079989;27;45441;-70
2021/07/03 03:34:26;;;;;;;;;14.75;13.00;;;;;22.95;100.00;101080.03;5079926;27;46531;-71
2021/07/03 03:36:51;;;;;;;;;14.25;13.00;;;;;23.00;100.00;101093.94;5079635;27;45428;-71
2021/07/03 03:39:17;;;;;;;;;18.50;16.00;;;;;23.00;100.00;101088.59;5080099;27;45284;-71
2021/07/03 03:41:42;;;;;;;;;13.50;12.75;;;;;22.96;100.00;101082.63;5079944;27;45231;-70
2021/07/03 03:44:07;;;;;;;;;15.75;15.50;;;;;23.00;100.00;101088.59;5079517;27;46584;-70
2021/07/03 03:46:33;;;;;;;;;14.75;14.50;;;;;23.00;100.00;101089.47;5079907;27;45261;-70
2021/07/03 03:48:58;;;;;;;;;15.00;14.50;;;;;22.96;100.00;101081.75;5079634;27;45341;-70
2021/07/03 03:51:24;;;;;;;;;15.00;14.00;;;;;22.89;100.00;101074.16;5080169;27;45265;-70
2021/07/03 03:57:30;;;;;;;;;17.50;16.00;;;;;22.85;100.00;101082.38;5078406;28;45532;-71
2021/07/03 03:59:56;;;;;;;;;15.50;15.50;;;;;22.91;100.00;101095.34;5079870;27;45399;-71
2021/07/03 04:02:22;;;;;;;;;17.00;15.25;;;;;22.94;100.00;101103.16;5080080;27;45323;-72
2021/07/03 04:04:51;;;;;;;;;17.50;16.00;;;;;22.80;100.00;101085.28;5079423;28;45950;-70
2021/07/03 04:07:20;;;;;;;;;13.25;13.00;;;;;22.87;100.00;101093.84;5079610;27;45554;-70
2021/07/03 04:09:46;;;;;;;;;15.25;14.00;;;;;22.91;100.00;101106.88;5079193;27;45375;-70
2021/07/03 04:12:13;;;;;;;;;18.00;16.75;;;;;22.88;100.00;101108.84;5079689;27;45320;-71
2021/07/03 04:14:38;;;;;;;;;17.00;15.75;;;;;22.82;100.00;101110.06;5079325;27;46788;-70
2021/07/03 04:17:04;;;;;;;;;17.75;16.00;;;;;22.76;100.00;101106.88;5079022;27;45429;-70
2021/07/03 04:19:30;;;;;;;;;15.75;14.75;;;;;22.80;100.00;101113.72;5079261;27;45377;-71
2021/07/03 04:21:55;;;;;;;;;18.25;16.75;;;;;22.70;100.00;101093.94;5079594;27;45328;-70
2021/07/03 04:27:43;;;;;;;;;13.75;13.50;;;;;22.72;100.00;101103.53;5078820;28;45458;-70
2021/07/03 04:30:10;;;;;;;;;15.00;13.00;;;;;22.76;100.00;101106.88;5079382;27;45223;-70
2021/07/03 04:32:36;;;;;;;;;16.75;14.25;;;;;22.71;100.00;101106.28;5079083;27;45373;-70
2021/07/03 04:35:04;;;;;;;;;16.75;14.75;;;;;22.73;100.00;101107.91;5078779;27;46282;-70
2021/07/03 04:37:29;;;;;;;;;13.50;13.50;;;;;22.72;100.00;101108.88;5078996;27;45323;-70
2021/07/03 04:39:55;;;;;;;;;14.00;12.75;;;;;22.66;100.00;101100.41;5079123;27;45330;-70
2021/07/03 04:42:20;;;;;;;;;15.00;15.00;;;;;22.69;100.00;101111.72;5079271;27;45304;-71
2021/07/03 04:44:45;;;;;;;;;14.00;14.00;;;;;22.69;100.00;101111.72;5078618;27;46387;-70
2021/07/03 04:47:11;;;;;;;;;12.75;12.25;;;;;22.66;100.00;101113.69;5078485;27;45439;-70
2021/07/03 04:49:36;;;;;;;;;15.25;13.25;;;;;22.67;100.00;101121.59;5079012;27;45341;-70
2021/07/03 04:52:02;;;;;;;;;12.50;12.00;;;;;22.65;100.00;101126.16;5079060;27;45258;-72
2021/07/03 04:57:51;;;;;;;;;14.25;14.00;;;;;22.63;100.00;101114.72;5072079;28;45649;-70
2021/07/03 05:00:17;;;;;;;;;15.00;13.75;;;;;22.64;100.00;101120.91;5078419;27;45290;-70
2021/07/03 05:02:43;;;;;;;;;14.50;12.75;;;;;22.60;100.00;101112.22;5078680;27;45473;-70
2021/07/03 05:05:09;;;;;;;;;14.75;13.00;;;;;22.63;100.00;101117.38;5078146;27;46585;-70
2021/07/03 05:07:34;;;;;;;;;11.00;10.00;;;;;22.65;100.00;101119.97;5078257;27;45645;-70
2021/07/03 05:10:00;;;;;;;;;11.50;11.00;;;;;22.69;100.00;101110.84;5078315;27;45778;-70
2021/07/03 05:12:25;;;;;;;;;13.00;13.00;;;;;22.72;100.00;101108.88;5078731;27;45270;-70
2021/07/03 05:14:50;;;;;;;;;13.50;12.75;;;;;22.76;100.00;101104.22;5078432;27;45604;-70
2021/07/03 05:17:16;;;;;;;;;11.75;11.25;;;;;22.81;100.00;101107.44;5078415;27;45351;-70
2021/07/03 05:19:41;;;;;;;;;14.25;12.25;;;;;22.85;100.00;101101.88;5078220;27;45301;-71
2021/07/03 05:22:06;;;;;;;;;13.00;11.50;;;;;22.83;100.00;101093.13;5078296;27;45261;-72
2021/07/03 05:27:53;;;;;;;;;13.25;12.25;;;;;22.97;100.00;101091.47;5077650;28;45272;-75
2021/07/03 05:30:19;;;;;;;;;12.50;12.25;;;;;23.02;100.00;101102.69;5078144;27;45276;-73
2021/07/03 05:32:44;;;;;;;;;11.75;11.75;;;;;23.07;100.00;101098.78;5078201;27;45398;-73
2021/07/03 05:35:11;;;;;;;;;13.00;12.00;;;;;23.16;100.00;101108.91;5077728;27;47511;-74
2021/07/03 05:37:37;;;;;;;;;17.50;14.00;;;;;23.20;100.00;101104.25;5077673;27;45573;-75
2021/07/03 05:40:04;;;;;;;;;13.50;13.00;;;;;23.10;100.00;101079.97;5077454;27;45370;-74
2021/07/03 05:42:29;;;;;;;;;14.00;13.00;;;;;23.29;100.00;101095.66;5077888;27;45350;-73
2021/07/03 05:44:55;;;;;;;;;16.50;15.00;;;;;23.28;100.00;101087.78;5077692;27;45407;-73
2021/07/03 05:47:21;;;;;;;;;12.50;12.25;;;;;23.21;100.00;101081.97;5077742;27;45294;-74
2021/07/03 05:49:47;;;;;;;;;15.00;13.00;;;;;23.28;100.00;101099.28;5077933;27;45296;-71
2021/07/03 05:52:12;;;;;;;;;15.25;14.25;;;;;23.30;100.00;101109.84;5077820;27;45383;-73
2021/07/03 05:57:59;;;;;;;;;15.25;15.00;;;;;23.37;100.00;101106.72;5075237;27;45657;-74
2021/07/03 06:00:25;;;;;;;;;16.25;14.50;;;;;23.44;100.00;101104.53;5076300;28;45339;-74
2021/07/03 06:02:50;;;;;;;;;13.00;13.00;;;;;23.48;100.00;101109.56;5077683;27;45566;-71
2021/07/03 06:05:16;;;;;;;;;17.75;15.75;;;;;23.53;100.00;101107.47;5077424;27;47134;-71
2021/07/03 06:07:41;;;;;;;;;13.25;13.25;;;;;23.62;100.00;101118.56;5077154;27;45310;-70
2021/07/03 06:13:28;;;;;;;;;13.50;12.75;;;;;23.80;100.00;101117.41;5077557;28;45304;-72
2021/07/03 06:15:54;;;;;;;;;14.75;14.00;;;;;23.87;100.00;101115.19;5077477;27;46439;-72
2021/07/03 06:18:19;;;;;;;;;12.00;12.00;;;;;23.95;100.00;101118.22;5077413;27;45315;-73
2021/07/03 06:20:45;;;;;;;;;14.75;13.00;;;;;24.00;100.00;101119.66;5077695;27;45327;-72
2021/07/03 06:23:10;;;;;;;;;10.75;10.75;;;;;24.07;100.00;101120.97;5077306;27;45339;-72
2021/07/03 06:25:35;;;;;;;;;11.00;11.00;;;;;24.07;100.00;101114.78;5077446;27;46317;-73
2021/07/03 06:28:01;;;;;;;;;10.00;9.00;;;;;24.11;100.00;101121.63;5076975;28;45408;-71
2021/07/03 06:30:26;;;;;;;;;11.00;10.00;;;;;24.12;100.00;101126.00;5077235;27;45441;-72
2021/07/03 06:32:52;;;;;;;;;11.75;11.00;;;;;24.19;100.00;101134.47;5077406;27;45412;-71
2021/07/03 06:35:17;;;;;;;;;15.00;13.25;;;;;24.20;100.00;101128.16;5077122;27;46074;-71
2021/07/03 06:37:43;;;;;;;;;13.50;12.00;;;;;24.29;100.00;101141.81;5077343;27;45341;-71
2021/07/03 06:43:30;;;;;;;;;12.50;11.50;;;;;24.34;100.00;101120.16;5077216;28;45298;-72
2021/07/03 06:45:55;;;;;;;;;9.75;9.75;;;;;24.43;100.00;101122.22;5077050;27;46491;-71
2021/07/03 06:48:21;;;;;;;;;12.25;11.75;;;;;24.52;100.00;101121.63;5076750;27;45396;-72
2021/07/03 06:50:47;;;;;;;;;14.50;11.00;;;;;24.59;100.00;101122.91;5077216;27;45325;-71
2021/07/03 06:53:12;;;;;;;;;9.50;9.50;;;;;24.72;100.00;101129.16;5080640;27;45494;-72
2021/07/03 06:55:38;;;;;;;;;13.50;12.50;;;;;24.85;100.00;101136.31;5080134;27;46880;-71
2021/07/03 06:58:03;;;;;;;;;14.75;13.25;;;;;25.03;100.00;101132.44;5080009;27;45326;-71
2021/07/03 07:00:28;;;;;;;;;11.00;10.50;;;;;25.22;100.00;101132.03;5080669;27;45282;-72
2021/07/03 07:02:54;;;;;;;;;13.00;13.00;;;;;25.41;100.00;101139.63;5080384;27;45621;-71
2021/07/03 07:05:19;;;;;;;;;14.00;12.75;;;;;25.50;100.00;101136.31;5080210;27;47071;-72
2021/07/03 07:07:45;;;;;;;;;13.50;10.25;;;;;25.58;100.00;101150.88;5080178;27;45360;-71
2021/07/03 07:13:32;;;;;;;;;11.25;11.00;;;;;25.55;100.00;101139.50;5080166;28;45421;-71
2021/07/03 07:15:57;;;;;;;;;10.75;10.00;;;;;25.55;100.00;101147.53;5079874;27;47230;-71
2021/07/03 07:18:23;;;;;;;;;14.25;13.00;;;;;25.54;100.00;101156.50;5078716;28;45296;-73
2021/07/03 07:20:48;;;;;;;;;11.75;10.75;;;;;25.56;100.00;101162.59;5078893;28;45451;-72
2021/07/03 07:23:14;;;;;;;;;15.25;12.75;;;;;25.53;100.00;101146.78;5080228;27;45633;-72
2021/07/03 07:29:02;;;;;;;;;16.50;14.00;;;;;25.62;100.00;101168.41;5079996;28;45432;-72
2021/07/03 07:31:27;;;;;;;;;12.50;12.00;;;;;25.60;100.00;101164.97;5079933;27;45251;-72
2021/07/03 07:33:52;;;;;;;;;13.50;13.25;;;;;25.59;100.00;101163.28;5080409;27;45219;-74
2021/07/03 07:36:18;;;;;;;;;13.25;12.50;;;;;25.67;100.00;101170.78;5079565;27;46008;-71
2021/07/03 07:38:43;;;;;;;;;13.75;13.00;;;;;25.71;100.00;101172.28;5079602;27;45361;-72
2021/07/03 07:41:09;;;;;;;;;11.25;10.00;;;;;25.77;100.00;101168.28;5079704;27;45269;-70
2021/07/03 07:43:34;;;;;;;;;13.75;10.75;;;;;25.79;100.00;101169.03;5079879;27;45283;-71
2021/07/03 07:46:00;;;;;;;;;13.00;11.00;;;;;25.90;100.00;101170.00;5079270;27;46266;-70
2021/07/03 07:48:30;;;;;;;;;13.00;11.50;;;;;25.91;100.00;101161.00;5079549;27;45255;-71
2021/07/03 07:50:57;;;;;;;;;13.50;12.00;;;;;26.07;100.00;101176.81;5079561;27;45446;-71
2021/07/03 07:53:22;;;;;;;;;12.00;10.50;;;;;26.08;100.00;101183.88;5079905;27;45395;-71
2021/07/03 07:59:10;;;;;;;;;9.75;9.00;;;;;25.85;100.00;101166.81;5068322;28;45498;-72
2021/07/03 08:01:35;;;;;;;;;10.50;10.50;;;;;25.80;100.00;101173.44;5078776;27;45344;-72
2021/07/03 08:04:00;;;;;;;;;11.75;10.50;;;;;25.76;100.00;101178.16;5079924;27;45305;-72
2021/07/03 08:06:26;;;;;;;;;11.00;11.00;;;;;25.72;100.00;101179.31;5079078;27;46151;-72
2021/07/03 08:08:51;;;;;;;;;10.00;9.25;;;;;25.67;100.00;101180.59;5079288;27;45517;-72
2021/07/03 08:11:16;;;;;;;;;11.25;11.25;;;;;25.49;100.00;101170.22;5079107;27;45331;-71
2021/07/03 08:13:42;;;;;;;;;10.00;9.25;;;;;25.40;100.00;101180.72;5079387;27;45387;-71
2021/07/03 08:16:07;;;;;;;;;9.25;8.50;;;;;25.30;100.00;101188.50;5079155;27;46734;-71
2021/07/03 08:18:33;;;;;;;;;13.50;12.25;;;;;25.16;100.00;101188.59;5079362;27;45269;-72
2021/07/03 08:20:58;;;;;;;;;16.50;15.00;;;;;25.08;100.00;101182.88;5078058;28;45311;-71
2021/07/03 08:23:23;;;;;;;;;11.50;11.00;;;;;24.97;100.00;101175.59;5079307;27;45266;-72
2021/07/03 08:29:11;;;;;;;;;13.00;12.00;;;;;24.57;100.00;101194.25;5078950;28;45331;-70
2021/07/03 08:31:36;;;;;;;;;12.00;10.50;;;;;24.27;100.00;101186.41;5079309;27;45420;-71
2021/07/03 08:34:02;;;;;;;;;10.25;10.25;;;;;24.00;100.00;101186.34;5079047;27;45304;-71
2021/07/03 08:36:29;;;;;;;;;12.00;10.50;;;;;23.72;100.00;101191.69;5078647;27;45337;-69
2021/07/03 08:38:54;;;;;;;;;10.00;9.25;;;;;23.48;100.00;101194.88;5078992;27;45268;-71
2021/07/03 08:41:21;;;;;;;;;12.75;11.75;;;;;23.26;100.00;101197.09;5078947;27;45304;-70
2021/07/03 08:43:49;;;;;;;;;11.25;10.00;;;;;23.12;100.00;101197.09;5078998;27;45210;-69
2021/07/03 08:46:18;;;;;;;;;12.00;11.75;;;;;23.02;100.00;101199.44;5078453;27;47104;-71
2021/07/03 08:48:44;;;;;;;;;10.75;10.00;;;;;23.00;100.00;101200.47;5078615;27;45268;-71
2021/07/03 08:51:09;;;;;;;;;13.50;13.00;;;;;22.99;100.00;101196.09;5077471;28;45309;-70
2021/07/03 08:53:34;;;;;;;;;12.00;12.00;;;;;23.03;100.00;101200.28;5078917;27;45349;-70
2021/07/03 08:59:22;;;;;;;;;11.75;9.25;;;;;23.25;100.00;101197.19;5075820;27;45618;-71
2021/07/03 09:01:53;;;;;;;;;14.00;11.00;;;;;23.32;100.00;101198.56;5078766;27;45421;-71
2021/07/03 09:04:31;;;;;;;;;11.75;11.75;;;;;23.33;100.00;101192.28;5078750;27;45300;-71
2021/07/03 09:06:56;;;;;;;;;13.75;11.50;;;;;23.47;100.00;101190.50;5078007;27;47427;-71
2021/07/03 09:09:25;;;;;;;;;16.50;13.75;;;;;23.58;100.00;101199.69;5078096;27;45351;-71
2021/07/03 09:11:54;;;;;;;;;15.50;12.75;;;;;23.68;100.00;101200.81;5078382;27;45344;-71
2021/07/03 09:14:27;;;;;;;;;13.00;12.25;;;;;23.70;100.00;101198.91;5077787;28;45344;-70
2021/07/03 09:16:57;;;;;;;;;13.50;13.50;;;;;23.76;100.00;101211.88;5077988;27;46293;-70
2021/07/03 09:19:27;;;;;;;;;15.00;14.00;;;;;23.71;100.00;101196.16;5078134;27;45359;-70
2021/07/03 09:21:53;;;;;;;;;13.50;12.25;;;;;23.65;100.00;101187.69;5078233;27;45391;-70
2021/07/03 09:24:18;;;;;;;;;13.75;12.00;;;;;23.69;100.00;101189.22;5076938;28;45360;-70
2021/07/03 09:26:44;;;;;;;;;12.50;11.00;;;;;23.68;100.00;101184.81;5078226;27;45369;-72
2021/07/03 09:29:11;;;;;;;;;13.25;11.50;;;;;23.85;100.00;101207.78;5077863;27;45492;-70
2021/07/03 09:31:36;;;;;;;;;13.00;11.75;;;;;23.90;100.00;101214.53;5078268;27;45309;-70
2021/07/03 09:34:01;;;;;;;;;12.00;11.25;;;;;23.82;100.00;101200.84;5078227;27;45344;-71
2021/07/03 09:36:29;;;;;;;;;13.50;12.00;;;;;23.96;100.00;101226.63;5077805;27;45981;-71
2021/07/03 09:38:57;;;;;;;;;10.75;10.00;;;;;23.91;100.00;101221.59;5076567;27;45495;-71
2021/07/03 09:44:44;;;;;;;;;10.50;10.50;;;;;23.96;100.00;101216.81;5078088;28;45327;-71
2021/07/03 09:47:16;;;;;;;;;12.00;9.75;;;;;24.13;100.00;101210.44;5077467;27;47146;-71
2021/07/03 09:49:41;;;;;;;;;15.75;14.00;;;;;24.35;100.00;101215.28;5077568;27;45427;-70
2021/07/03 09:52:07;;;;;;;;;14.50;14.00;;;;;24.56;100.00;101215.72;5077702;27;45370;-71
2021/07/03 09:54:32;;;;;;;;;13.00;12.00;;;;;24.67;100.00;101216.75;5077635;27;45370;-72
2021/07/03 09:56:58;;;;;;;;;13.75;12.25;;;;;24.78;100.00;101218.69;5076003;28;47112;-70
2021/07/03 09:59:33;;;;;;;;;10.00;10.00;;;;;24.86;100.00;101223.50;5077190;27;45500;-70
2021/07/03 10:01:59;;;;;;;;;12.00;10.50;;;;;24.98;100.00;101226.25;5077614;27;45268;-70
2021/07/03 10:04:24;;;;;;;;;12.50;10.00;;;;;25.07;100.00;101216.78;5077733;27;45419;-70
2021/07/03 10:07:03;;;;;;;;;9.50;8.00;;;;;25.19;100.00;101225.81;5076131;28;46406;-70
2021/07/03 10:09:41;;;;;;;;;7.50;6.75;;;;;25.31;100.00;101215.13;5077363;27;45379;-71
2021/07/03 10:12:10;;;;;;;;;9.00;8.25;;;;;25.38;100.00;101222.72;5077390;27;45438;-70
2021/07/03 10:14:38;;;;;;;;;8.25;6.75;;;;;25.43;100.00;101220.59;5077358;27;45427;-70
2021/07/03 10:17:04;;;;;;;;;10.00;10.00;;;;;25.60;100.00;101209.59;5077249;27;45999;-70
2021/07/03 10:19:38;;;;;;;;;13.50;12.50;;;;;25.88;100.00;101213.88;5077163;27;45501;-70
2021/07/03 10:22:13;;;;;;;;;11.00;10.00;;;;;26.08;100.00;101217.81;5075939;28;45315;-71
2021/07/03 10:24:44;;;;;;;;;10.25;9.00;;;;;26.27;100.00;101212.88;5077660;27;45467;-70
2021/07/03 10:27:24;;;;;;;;;8.75;8.75;;;;;26.59;100.00;101202.50;5083504;27;46255;-71
2021/07/03 10:29:56;;;;;;;;;12.00;9.00;;;;;27.05;100.00;101207.13;5084121;27;45521;-70
2021/07/03 10:32:36;;;;;;;;;10.50;9.75;;;;;27.54;100.00;101214.91;5083864;27;45346;-70
2021/07/03 10:35:19;;;;;;;;;8.75;8.00;;;;;27.75;100.00;101204.38;5084212;27;45410;-70
2021/07/03 10:37:45;;;;;;;;;9.00;8.00;;;;;27.91;100.00;101204.00;5083601;27;46528;-70
2021/07/03 10:40:24;;;;;;;;;10.00;9.50;;;;;28.27;100.00;101205.56;5083625;27;45657;-70
2021/07/03 10:42:51;;;;;;;;;8.75;8.75;;;;;28.90;100.00;101212.03;5083778;27;45238;-71
2021/07/03 10:45:23;;;;;;;;;7.50;7.50;;;;;29.15;100.00;101206.28;5083949;28;45561;-70
2021/07/03 10:47:50;;;;;;;;;6.75;6.75;;;;;29.15;100.00;101205.44;5083744;27;47315;-69
2021/07/03 10:50:22;;;;;;;;;10.75;9.00;;;;;29.13;100.00;101199.34;5083499;27;45339;-70
2021/07/03 10:52:49;;;;;;;;;6.00;5.00;;;;;29.36;100.00;101206.28;5083980;27;45321;-70
2021/07/03 10:55:29;;;;;;;;;8.75;7.00;;;;;29.93;100.00;101196.00;5083744;27;45286;-71
2021/07/03 10:57:55;;;;;;;;;6.50;6.50;;;;;30.15;100.00;101196.69;5083549;27;47585;-71
2021/07/03 11:00:23;;;;;;;;;7.00;5.25;;;;;30.45;100.00;101206.53;5083266;27;45376;-70
2021/07/03 11:02:49;;;;;;;;;5.25;5.25;;;;;30.87;100.00;101198.22;5083466;27;45486;-70
2021/07/03 11:05:15;;;;;;;;;7.25;7.00;;;;;31.59;100.00;101203.13;5083720;27;45464;-70
2021/07/03 11:07:42;;;;;;;;;6.25;5.00;;;;;31.95;100.00;101200.63;5083464;28;45324;-70
2021/07/03 11:10:14;;;;;;;;;6.50;6.00;;;;;31.80;100.00;101194.00;5083168;27;45546;-70
2021/07/03 11:12:53;;;;;;;;;18.00;15.50;;;;;31.44;100.00;101182.13;5083620;27;45272;-72
2021/07/03 11:15:21;;;;;;;;;6.00;6.00;;;;;31.37;100.00;101192.66;5083498;27;45496;-70
2021/07/03 11:17:47;;;;;;;;;6.75;6.00;;;;;31.33;100.00;101180.47;5082953;27;46241;-70
2021/07/03 11:20:27;;;;;;;;;5.50;5.00;;;;;31.76;100.00;101184.50;5083109;27;45349;-71
2021/07/03 11:22:54;;;;;;;;;5.75;5.25;;;;;31.88;100.00;101164.38;5083281;27;45410;-69
2021/07/03 11:25:26;;;;;;;;;4.50;4.00;;;;;31.96;100.00;101181.56;5083551;27;45343;-68
2021/07/03 11:27:52;;;;;;;;;6.25;5.25;;;;;31.87;100.00;101177.03;5083032;27;46253;-70
2021/07/03 11:30:19;;;;;;;;;4.25;4.00;;;;;31.92;100.00;101171.22;5083205;28;45306;-69
2021/07/03 11:32:54;;;;;;;;;3.75;3.75;;;;;32.00;100.00;101176.69;5082839;27;45304;-69
2021/07/03 11:35:20;;;;;;;;;4.25;3.25;;;;;32.02;99.47;101165.75;5081776;28;45473;-70
2021/07/03 11:37:46;;;;;;;;;4.75;4.75;;;;;32.07;99.87;101175.09;5079844;27;46277;-71
2021/07/03 11:40:23;;;;;;;;;3.50;3.50;;;;;32.22;100.00;101161.94;5078482;28;45379;-72
2021/07/03 11:42:51;;;;;;;;;5.00;4.75;;;;;32.67;100.00;101171.88;5079792;27;45291;-71
2021/07/03 11:45:25;;;;;;;;;4.75;4.75;;;;;33.35;100.00;101162.16;5079828;27;45438;-69
2021/07/03 11:47:53;;;;;;;;;3.00;3.00;;;;;34.03;96.69;101172.19;5079415;27;47282;-71
2021/07/03 11:50:21;;;;;;;;;4.00;4.00;;;;;34.45;92.63;101169.47;5079379;27;45431;-71
2021/07/03 11:52:52;;;;;;;;;4.75;4.25;;;;;35.04;84.22;101169.34;5079657;27;45367;-70
2021/07/03 11:55:24;;;;;;;;;5.50;5.00;;;;;35.44;86.31;101163.88;5079904;27;45395;-70
2021/07/03 11:57:50;;;;;;;;;3.00;2.75;;;;;35.94;83.84;101170.88;5079274;27;46259;-69
2021/07/03 12:00:35;;;;;;;;;4.50;4.50;;;;;36.42;83.25;101163.50;5079237;27;45214;-69
2021/07/03 12:03:07;;;;;;;;;4.25;4.00;;;;;36.31;77.50;101161.19;5079245;27;45290;-70
2021/07/03 12:05:38;;;;;;;;;4.00;3.00;;;;;36.05;76.49;101170.50;5079345;27;45287;-70
2021/07/03 12:08:08;;;;;;;;;2.00;2.00;;;;;36.10;74.70;101161.78;5078886;27;46395;-70
2021/07/03 12:11:04;;;;;;;;;4.75;3.00;;;;;36.35;72.98;101167.97;5078912;27;45229;-72
2021/07/03 12:13:31;;;;;;;;;2.00;2.00;;;;;36.04;69.53;101171.50;5077029;28;45407;-70